sensor_id;sensor_type;location;lat;lon;timestamp;temperature;humidity
41953;DHT22;63613;28.200;112.870;2023-03-03T00:02:04;17.30;64.50
41953;DHT22;63613;28.200;112.870;2023-03-03T00:04:31;17.30;64.40
41953;DHT22;63613;28.200;112.870;2023-03-03T00:06:58;17.30;64.50
41953;DHT22;63613;28.200;112.870;2023-03-03T00:09:25;17.30;64.50
41953;DHT22;63613;28.200;112.870;2023-03-03T00:11:56;17.30;64.60
41953;DHT22;63613;28.200;112.870;2023-03-03T00:14:59;17.30;64.60
41953;DHT22;63613;28.200;112.870;2023-03-03T00:17:28;17.30;64.70
41953;DHT22;63613;28.200;112.870;2023-03-03T00:19:57;17.30;64.60
41953;DHT22;63613;28.200;112.870;2023-03-03T00:22:35;17.30;64.80
41953;DHT22;63613;28.200;112.870;2023-03-03T00:25:30;17.30;64.90
41953;DHT22;63613;28.200;112.870;2023-03-03T00:28:28;17.30;64.90
41953;DHT22;63613;28.200;112.870;2023-03-03T00:30:59;17.30;65.10
41953;DHT22;63613;28.200;112.870;2023-03-03T00:33:29;17.30;65.20
41953;DHT22;63613;28.200;112.870;2023-03-03T00:38:47;17.30;65.20
41953;DHT22;63613;28.200;112.870;2023-03-03T00:41:24;17.30;65.30
41953;DHT22;63613;28.200;112.870;2023-03-03T00:44:30;17.30;65.30
41953;DHT22;63613;28.200;112.870;2023-03-03T00:49:47;17.30;65.00
41953;DHT22;63613;28.200;112.870;2023-03-03T00:52:16;17.30;64.90
41953;DHT22;63613;28.200;112.870;2023-03-03T00:54:43;17.30;64.80
41953;DHT22;63613;28.200;112.870;2023-03-03T00:57:11;17.30;64.80
41953;DHT22;63613;28.200;112.870;2023-03-03T00:59:40;17.30;64.70
41953;DHT22;63613;28.200;112.870;2023-03-03T01:02:07;17.30;64.60
41953;DHT22;63613;28.200;112.870;2023-03-03T01:04:34;17.30;64.50
41953;DHT22;63613;28.200;112.870;2023-03-03T01:07:21;17.30;64.30
41953;DHT22;63613;28.200;112.870;2023-03-03T01:09:48;17.30;64.10
41953;DHT22;63613;28.200;112.870;2023-03-03T01:12:15;17.30;64.00
41953;DHT22;63613;28.200;112.870;2023-03-03T01:14:42;17.30;63.90
41953;DHT22;63613;28.200;112.870;2023-03-03T01:17:10;17.30;63.80
41953;DHT22;63613;28.200;112.870;2023-03-03T01:19:37;17.30;63.60
41953;DHT22;63613;28.200;112.870;2023-03-03T01:22:04;17.30;63.50
41953;DHT22;63613;28.200;112.870;2023-03-03T01:24:30;17.30;63.50
41953;DHT22;63613;28.200;112.870;2023-03-03T01:26:57;17.30;63.50
41953;DHT22;63613;28.200;112.870;2023-03-03T01:29:24;17.30;63.40
41953;DHT22;63613;28.200;112.870;2023-03-03T01:31:51;17.30;63.30
41953;DHT22;63613;28.200;112.870;2023-03-03T01:34:18;17.30;63.10
41953;DHT22;63613;28.200;112.870;2023-03-03T01:36:44;17.30;63.00
41953;DHT22;63613;28.200;112.870;2023-03-03T01:39:11;17.30;62.90
41953;DHT22;63613;28.200;112.870;2023-03-03T01:41:38;17.30;62.70
41953;DHT22;63613;28.200;112.870;2023-03-03T01:44:08;17.30;62.60
41953;DHT22;63613;28.200;112.870;2023-03-03T01:49:39;17.40;62.40
41953;DHT22;63613;28.200;112.870;2023-03-03T01:55:04;17.50;62.20
41953;DHT22;63613;28.200;112.870;2023-03-03T01:57:41;17.50;62.30
41953;DHT22;63613;28.200;112.870;2023-03-03T02:00:10;17.50;62.50
41953;DHT22;63613;28.200;112.870;2023-03-03T02:02:38;17.50;62.60
41953;DHT22;63613;28.200;112.870;2023-03-03T02:05:06;17.40;62.80
41953;DHT22;63613;28.200;112.870;2023-03-03T02:07:34;17.40;62.90
41953;DHT22;63613;28.200;112.870;2023-03-03T02:10:17;17.40;62.80
41953;DHT22;63613;28.200;112.870;2023-03-03T02:12:51;17.50;62.80
41953;DHT22;63613;28.200;112.870;2023-03-03T02:15:24;17.40;62.70
41953;DHT22;63613;28.200;112.870;2023-03-03T02:17:55;17.50;62.60
41953;DHT22;63613;28.200;112.870;2023-03-03T02:20:45;17.50;62.50
41953;DHT22;63613;28.200;112.870;2023-03-03T02:23:34;17.50;62.40
41953;DHT22;63613;28.200;112.870;2023-03-03T02:26:12;17.40;62.30
41953;DHT22;63613;28.200;112.870;2023-03-03T02:28:39;17.50;62.10
41953;DHT22;63613;28.200;112.870;2023-03-03T02:31:12;17.50;61.90
41953;DHT22;63613;28.200;112.870;2023-03-03T02:33:41;17.50;61.70
41953;DHT22;63613;28.200;112.870;2023-03-03T02:36:26;17.50;61.60
41953;DHT22;63613;28.200;112.870;2023-03-03T02:39:13;17.60;61.50
41953;DHT22;63613;28.200;112.870;2023-03-03T02:44:31;17.50;61.30
41953;DHT22;63613;28.200;112.870;2023-03-03T02:46:58;17.50;61.30
41953;DHT22;63613;28.200;112.870;2023-03-03T02:49:28;17.50;61.20
41953;DHT22;63613;28.200;112.870;2023-03-03T02:51:57;17.60;61.10
41953;DHT22;63613;28.200;112.870;2023-03-03T02:54:26;17.60;61.00
41953;DHT22;63613;28.200;112.870;2023-03-03T02:56:53;17.50;60.80
41953;DHT22;63613;28.200;112.870;2023-03-03T02:59:23;17.50;60.70
41953;DHT22;63613;28.200;112.870;2023-03-03T03:01:57;17.60;60.60
41953;DHT22;63613;28.200;112.870;2023-03-03T03:04:25;17.60;60.50
41953;DHT22;63613;28.200;112.870;2023-03-03T03:06:53;17.50;60.40
41953;DHT22;63613;28.200;112.870;2023-03-03T03:09:21;17.50;60.30
41953;DHT22;63613;28.200;112.870;2023-03-03T03:11:49;17.50;60.20
41953;DHT22;63613;28.200;112.870;2023-03-03T03:14:36;17.50;60.20
41953;DHT22;63613;28.200;112.870;2023-03-03T03:17:03;17.50;60.10
41953;DHT22;63613;28.200;112.870;2023-03-03T03:19:30;17.50;60.20
41953;DHT22;63613;28.200;112.870;2023-03-03T03:21:57;17.50;60.10
41953;DHT22;63613;28.200;112.870;2023-03-03T03:24:24;17.50;60.00
41953;DHT22;63613;28.200;112.870;2023-03-03T03:26:50;17.50;60.10
41953;DHT22;63613;28.200;112.870;2023-03-03T03:29:17;17.60;60.00
41953;DHT22;63613;28.200;112.870;2023-03-03T03:31:44;17.60;60.00
41953;DHT22;63613;28.200;112.870;2023-03-03T03:34:11;17.60;60.10
41953;DHT22;63613;28.200;112.870;2023-03-03T03:36:38;17.50;60.10
41953;DHT22;63613;28.200;112.870;2023-03-03T03:39:05;17.60;60.10
41953;DHT22;63613;28.200;112.870;2023-03-03T03:41:32;17.60;60.10
41953;DHT22;63613;28.200;112.870;2023-03-03T03:43:59;17.60;60.20
41953;DHT22;63613;28.200;112.870;2023-03-03T03:46:25;17.60;60.20
41953;DHT22;63613;28.200;112.870;2023-03-03T03:48:52;17.60;60.20
41953;DHT22;63613;28.200;112.870;2023-03-03T03:51:19;17.60;60.20
41953;DHT22;63613;28.200;112.870;2023-03-03T03:53:46;17.60;60.20
41953;DHT22;63613;28.200;112.870;2023-03-03T03:56:13;17.60;60.30
41953;DHT22;63613;28.200;112.870;2023-03-03T03:58:41;17.50;60.30
41953;DHT22;63613;28.200;112.870;2023-03-03T04:01:08;17.60;60.40
41953;DHT22;63613;28.200;112.870;2023-03-03T04:03:35;17.60;60.40
41953;DHT22;63613;28.200;112.870;2023-03-03T04:06:02;17.60;60.40
41953;DHT22;63613;28.200;112.870;2023-03-03T04:08:28;17.60;60.40
41953;DHT22;63613;28.200;112.870;2023-03-03T04:10:59;17.60;60.40
41953;DHT22;63613;28.200;112.870;2023-03-03T04:13:26;17.60;60.40
41953;DHT22;63613;28.200;112.870;2023-03-03T04:15:56;17.60;60.40
41953;DHT22;63613;28.200;112.870;2023-03-03T04:18:23;17.60;60.40
41953;DHT22;63613;28.200;112.870;2023-03-03T04:20:50;17.60;60.50
41953;DHT22;63613;28.200;112.870;2023-03-03T04:23:18;17.60;60.60
41953;DHT22;63613;28.200;112.870;2023-03-03T04:25:48;17.60;60.50
41953;DHT22;63613;28.200;112.870;2023-03-03T04:28:16;17.60;60.50
41953;DHT22;63613;28.200;112.870;2023-03-03T04:30:43;17.60;60.50
41953;DHT22;63613;28.200;112.870;2023-03-03T04:33:12;17.60;60.50
41953;DHT22;63613;28.200;112.870;2023-03-03T04:35:39;17.60;60.60
41953;DHT22;63613;28.200;112.870;2023-03-03T04:38:26;17.60;60.60
41953;DHT22;63613;28.200;112.870;2023-03-03T04:40:54;17.60;60.50
41953;DHT22;63613;28.200;112.870;2023-03-03T04:43:21;17.60;60.60
41953;DHT22;63613;28.200;112.870;2023-03-03T04:45:49;17.60;60.60
41953;DHT22;63613;28.200;112.870;2023-03-03T04:48:36;17.60;60.70
41953;DHT22;63613;28.200;112.870;2023-03-03T04:51:04;17.60;60.80
41953;DHT22;63613;28.200;112.870;2023-03-03T04:53:30;17.60;60.80
41953;DHT22;63613;28.200;112.870;2023-03-03T04:55:57;17.50;60.90
41953;DHT22;63613;28.200;112.870;2023-03-03T04:58:24;17.60;60.90
41953;DHT22;63613;28.200;112.870;2023-03-03T05:00:55;17.60;61.00
41953;DHT22;63613;28.200;112.870;2023-03-03T05:03:23;17.60;61.10
41953;DHT22;63613;28.200;112.870;2023-03-03T05:05:52;17.60;61.30
41953;DHT22;63613;28.200;112.870;2023-03-03T05:08:19;17.60;61.30
41953;DHT22;63613;28.200;112.870;2023-03-03T05:10:49;17.60;61.40
41953;DHT22;63613;28.200;112.870;2023-03-03T05:13:36;17.70;61.50
41953;DHT22;63613;28.200;112.870;2023-03-03T05:16:05;17.70;61.50
41953;DHT22;63613;28.200;112.870;2023-03-03T05:18:32;17.70;61.60
41953;DHT22;63613;28.200;112.870;2023-03-03T05:20:59;17.70;61.60
41953;DHT22;63613;28.200;112.870;2023-03-03T05:23:26;17.80;61.60
41953;DHT22;63613;28.200;112.870;2023-03-03T05:25:53;17.80;61.70
41953;DHT22;63613;28.200;112.870;2023-03-03T05:28:41;17.80;61.90
41953;DHT22;63613;28.200;112.870;2023-03-03T05:31:08;17.80;62.00
41953;DHT22;63613;28.200;112.870;2023-03-03T05:33:35;17.80;62.20
41953;DHT22;63613;28.200;112.870;2023-03-03T05:36:02;17.80;62.30
41953;DHT22;63613;28.200;112.870;2023-03-03T05:38:29;17.90;62.40
41953;DHT22;63613;28.200;112.870;2023-03-03T05:40:59;17.90;62.50
41953;DHT22;63613;28.200;112.870;2023-03-03T05:43:27;17.90;62.50
41953;DHT22;63613;28.200;112.870;2023-03-03T05:45:55;17.90;62.60
41953;DHT22;63613;28.200;112.870;2023-03-03T05:48:22;17.90;62.70
41953;DHT22;63613;28.200;112.870;2023-03-03T05:50:49;17.90;62.80
41953;DHT22;63613;28.200;112.870;2023-03-03T05:53:18;17.90;62.90
41953;DHT22;63613;28.200;112.870;2023-03-03T05:55:45;17.80;62.90
41953;DHT22;63613;28.200;112.870;2023-03-03T05:58:12;17.80;63.00
41953;DHT22;63613;28.200;112.870;2023-03-03T06:00:39;17.80;63.10
41953;DHT22;63613;28.200;112.870;2023-03-03T06:03:06;17.80;63.10
41953;DHT22;63613;28.200;112.870;2023-03-03T06:05:32;17.80;63.10
41953;DHT22;63613;28.200;112.870;2023-03-03T06:07:59;17.80;63.10
41953;DHT22;63613;28.200;112.870;2023-03-03T06:10:46;17.80;63.10
41953;DHT22;63613;28.200;112.870;2023-03-03T06:13:13;17.80;63.10
41953;DHT22;63613;28.200;112.870;2023-03-03T06:15:40;17.80;63.00
41953;DHT22;63613;28.200;112.870;2023-03-03T06:18:27;17.80;63.00
41953;DHT22;63613;28.200;112.870;2023-03-03T06:20:54;17.80;63.00
41953;DHT22;63613;28.200;112.870;2023-03-03T06:23:41;17.80;62.90
41953;DHT22;63613;28.200;112.870;2023-03-03T06:26:08;17.80;62.80
41953;DHT22;63613;28.200;112.870;2023-03-03T06:28:35;17.80;62.80
41953;DHT22;63613;28.200;112.870;2023-03-03T06:31:01;17.80;62.70
41953;DHT22;63613;28.200;112.870;2023-03-03T06:33:28;17.80;62.70
41953;DHT22;63613;28.200;112.870;2023-03-03T06:35:55;17.80;62.60
41953;DHT22;63613;28.200;112.870;2023-03-03T06:38:24;17.80;62.60
41953;DHT22;63613;28.200;112.870;2023-03-03T06:40:50;17.80;62.50
41953;DHT22;63613;28.200;112.870;2023-03-03T06:43:17;17.80;62.50
41953;DHT22;63613;28.200;112.870;2023-03-03T06:45:45;17.80;62.50
41953;DHT22;63613;28.200;112.870;2023-03-03T06:48:12;17.80;62.60
41953;DHT22;63613;28.200;112.870;2023-03-03T06:50:38;17.80;62.60
41953;DHT22;63613;28.200;112.870;2023-03-03T06:53:16;17.80;62.60
41953;DHT22;63613;28.200;112.870;2023-03-03T06:55:43;17.70;62.60
41953;DHT22;63613;28.200;112.870;2023-03-03T06:58:20;17.80;62.40
41953;DHT22;63613;28.200;112.870;2023-03-03T07:01:14;17.80;62.30
41953;DHT22;63613;28.200;112.870;2023-03-03T07:03:42;17.80;62.20
41953;DHT22;63613;28.200;112.870;2023-03-03T07:06:23;17.80;62.10
41953;DHT22;63613;28.200;112.870;2023-03-03T07:08:51;17.80;62.10
41953;DHT22;63613;28.200;112.870;2023-03-03T07:11:21;17.80;62.10
41953;DHT22;63613;28.200;112.870;2023-03-03T07:13:51;17.80;62.00
41953;DHT22;63613;28.200;112.870;2023-03-03T07:16:24;17.80;61.80
41953;DHT22;63613;28.200;112.870;2023-03-03T07:18:58;17.80;61.80
41953;DHT22;63613;28.200;112.870;2023-03-03T07:21:32;17.90;61.70
41953;DHT22;63613;28.200;112.870;2023-03-03T07:26:43;17.90;61.50
41953;DHT22;63613;28.200;112.870;2023-03-03T07:29:30;17.90;61.60
41953;DHT22;63613;28.200;112.870;2023-03-03T07:32:00;17.90;61.50
41953;DHT22;63613;28.200;112.870;2023-03-03T07:34:37;18.00;61.20
41953;DHT22;63613;28.200;112.870;2023-03-03T07:37:36;18.10;60.70
41953;DHT22;63613;28.200;112.870;2023-03-03T07:40:28;18.20;60.50
41953;DHT22;63613;28.200;112.870;2023-03-03T07:43:37;18.30;62.00
41953;DHT22;63613;28.200;112.870;2023-03-03T07:48:43;18.50;63.80
41953;DHT22;63613;28.200;112.870;2023-03-03T07:51:37;18.50;64.10
41953;DHT22;63613;28.200;112.870;2023-03-03T07:54:39;18.50;64.30
41953;DHT22;63613;28.200;112.870;2023-03-03T07:57:28;18.50;64.00
41953;DHT22;63613;28.200;112.870;2023-03-03T08:03:16;18.60;64.20
41953;DHT22;63613;28.200;112.870;2023-03-03T08:05:43;18.60;64.20
41953;DHT22;63613;28.200;112.870;2023-03-03T08:11:01;18.70;64.50
41953;DHT22;63613;28.200;112.870;2023-03-03T08:16:29;18.70;64.40
41953;DHT22;63613;28.200;112.870;2023-03-03T08:19:02;18.80;64.30
41953;DHT22;63613;28.200;112.870;2023-03-03T08:21:30;18.70;64.20
41953;DHT22;63613;28.200;112.870;2023-03-03T08:23:57;18.80;64.00
41953;DHT22;63613;28.200;112.870;2023-03-03T08:26:25;18.80;64.00
41953;DHT22;63613;28.200;112.870;2023-03-03T08:28:53;18.80;63.90
41953;DHT22;63613;28.200;112.870;2023-03-03T08:31:21;18.80;63.80
41953;DHT22;63613;28.200;112.870;2023-03-03T08:33:49;18.80;63.80
41953;DHT22;63613;28.200;112.870;2023-03-03T08:36:36;18.80;64.00
41953;DHT22;63613;28.200;112.870;2023-03-03T08:39:05;18.80;64.20
41953;DHT22;63613;28.200;112.870;2023-03-03T08:41:32;18.80;64.30
41953;DHT22;63613;28.200;112.870;2023-03-03T08:43:59;18.80;64.40
41953;DHT22;63613;28.200;112.870;2023-03-03T08:46:26;18.80;64.40
41953;DHT22;63613;28.200;112.870;2023-03-03T08:48:53;18.70;64.50
41953;DHT22;63613;28.200;112.870;2023-03-03T08:51:20;18.80;64.50
41953;DHT22;63613;28.200;112.870;2023-03-03T08:54:07;18.70;64.50
41953;DHT22;63613;28.200;112.870;2023-03-03T08:56:34;18.70;64.50
41953;DHT22;63613;28.200;112.870;2023-03-03T08:59:01;18.70;64.50
41953;DHT22;63613;28.200;112.870;2023-03-03T09:01:29;18.70;64.50
41953;DHT22;63613;28.200;112.870;2023-03-03T09:03:57;18.70;64.50
41953;DHT22;63613;28.200;112.870;2023-03-03T09:06:26;18.70;64.60
41953;DHT22;63613;28.200;112.870;2023-03-03T09:08:53;18.60;64.50
41953;DHT22;63613;28.200;112.870;2023-03-03T09:11:27;18.60;64.50
41953;DHT22;63613;28.200;112.870;2023-03-03T09:16:30;18.60;64.50
41953;DHT22;63613;28.200;112.870;2023-03-03T09:21:42;18.50;64.40
41953;DHT22;63613;28.200;112.870;2023-03-03T09:24:29;18.50;64.30
41953;DHT22;63613;28.200;112.870;2023-03-03T09:26:57;18.40;64.40
41953;DHT22;63613;28.200;112.870;2023-03-03T09:29:29;18.40;64.40
41953;DHT22;63613;28.200;112.870;2023-03-03T09:32:00;18.40;64.50
41953;DHT22;63613;28.200;112.870;2023-03-03T09:34:37;18.40;64.70
41953;DHT22;63613;28.200;112.870;2023-03-03T09:37:31;18.40;64.90
41953;DHT22;63613;28.200;112.870;2023-03-03T09:39:59;18.30;65.00
41953;DHT22;63613;28.200;112.870;2023-03-03T09:43:08;18.30;64.90
41953;DHT22;63613;28.200;112.870;2023-03-03T09:48:41;18.20;65.10
41953;DHT22;63613;28.200;112.870;2023-03-03T09:51:22;18.20;65.00
41953;DHT22;63613;28.200;112.870;2023-03-03T09:53:57;18.20;64.90
41953;DHT22;63613;28.200;112.870;2023-03-03T09:56:43;18.10;65.10
41953;DHT22;63613;28.200;112.870;2023-03-03T10:05:02;18.10;65.70
41953;DHT22;63613;28.200;112.870;2023-03-03T10:13:12;18.00;65.80
41953;DHT22;63613;28.200;112.870;2023-03-03T10:25:25;17.90;66.40
41953;DHT22;63613;28.200;112.870;2023-03-03T10:27:35;17.90;66.40
41953;DHT22;63613;28.200;112.870;2023-03-03T10:30:45;17.90;66.40
41953;DHT22;63613;28.200;112.870;2023-03-03T10:36:02;17.80;66.30
41953;DHT22;63613;28.200;112.870;2023-03-03T10:59:08;17.70;66.70
41953;DHT22;63613;28.200;112.870;2023-03-03T11:04:20;17.60;67.10
41953;DHT22;63613;28.200;112.870;2023-03-03T11:13:46;17.60;66.80
41953;DHT22;63613;28.200;112.870;2023-03-03T11:29:50;17.50;65.90
41953;DHT22;63613;28.200;112.870;2023-03-03T11:32:34;17.50;65.80
41953;DHT22;63613;28.200;112.870;2023-03-03T11:35:21;17.50;65.70
41953;DHT22;63613;28.200;112.870;2023-03-03T11:40:54;17.40;65.60
41953;DHT22;63613;28.200;112.870;2023-03-03T11:46:25;17.40;65.60
41953;DHT22;63613;28.200;112.870;2023-03-03T11:51:56;17.40;65.50
41953;DHT22;63613;28.200;112.870;2023-03-03T11:57:31;17.30;65.40
41953;DHT22;63613;28.200;112.870;2023-03-03T12:00:03;17.30;65.30
41953;DHT22;63613;28.200;112.870;2023-03-03T12:10:34;17.20;65.10
41953;DHT22;63613;28.200;112.870;2023-03-03T12:13:29;17.20;65.10
41953;DHT22;63613;28.200;112.870;2023-03-03T12:22:09;17.20;65.10
41953;DHT22;63613;28.200;112.870;2023-03-03T12:27:42;17.10;65.10
41953;DHT22;63613;28.200;112.870;2023-03-03T12:30:37;17.20;65.10
41953;DHT22;63613;28.200;112.870;2023-03-03T12:39:27;17.10;65.00
41953;DHT22;63613;28.200;112.870;2023-03-03T12:42:22;17.10;65.00
41953;DHT22;63613;28.200;112.870;2023-03-03T12:48:34;17.10;64.90
41953;DHT22;63613;28.200;112.870;2023-03-03T12:51:01;17.10;64.80
41953;DHT22;63613;28.200;112.870;2023-03-03T12:59:12;17.10;64.60
41953;DHT22;63613;28.200;112.870;2023-03-03T13:18:43;17.00;64.90
41953;DHT22;63613;28.200;112.870;2023-03-03T13:26:47;17.00;65.10
41953;DHT22;63613;28.200;112.870;2023-03-03T13:29:36;17.00;65.20
41953;DHT22;63613;28.200;112.870;2023-03-03T13:38:05;17.00;65.20
41953;DHT22;63613;28.200;112.870;2023-03-03T13:40:42;17.00;65.30
41953;DHT22;63613;28.200;112.870;2023-03-03T13:43:32;17.00;65.30
41953;DHT22;63613;28.200;112.870;2023-03-03T13:46:23;17.00;65.30
41953;DHT22;63613;28.200;112.870;2023-03-03T13:59:53;16.90;65.70
41953;DHT22;63613;28.200;112.870;2023-03-03T14:05:29;16.90;65.80
41953;DHT22;63613;28.200;112.870;2023-03-03T14:22:25;16.90;65.90
41953;DHT22;63613;28.200;112.870;2023-03-03T14:25:10;16.90;66.00
41953;DHT22;63613;28.200;112.870;2023-03-03T14:35:40;16.80;66.20
41953;DHT22;63613;28.200;112.870;2023-03-03T14:38:16;16.80;66.30
41953;DHT22;63613;28.200;112.870;2023-03-03T14:40:45;16.80;66.40
41953;DHT22;63613;28.200;112.870;2023-03-03T14:45:53;16.80;66.40
41953;DHT22;63613;28.200;112.870;2023-03-03T14:48:26;16.80;66.50
41953;DHT22;63613;28.200;112.870;2023-03-03T14:50:57;16.80;66.50
41953;DHT22;63613;28.200;112.870;2023-03-03T14:53:42;16.80;66.60
41953;DHT22;63613;28.200;112.870;2023-03-03T14:56:33;16.80;66.70
41953;DHT22;63613;28.200;112.870;2023-03-03T14:59:19;16.80;66.70
41953;DHT22;63613;28.200;112.870;2023-03-03T15:01:46;16.80;66.70
41953;DHT22;63613;28.200;112.870;2023-03-03T15:04:27;16.80;66.70
41953;DHT22;63613;28.200;112.870;2023-03-03T15:06:56;16.80;66.70
41953;DHT22;63613;28.200;112.870;2023-03-03T15:11:55;16.80;66.90
41953;DHT22;63613;28.200;112.870;2023-03-03T15:14:36;16.80;66.90
41953;DHT22;63613;28.200;112.870;2023-03-03T15:20:03;16.80;66.90
41953;DHT22;63613;28.200;112.870;2023-03-03T15:25:38;16.80;67.00
41953;DHT22;63613;28.200;112.870;2023-03-03T15:34:00;16.80;67.20
41953;DHT22;63613;28.200;112.870;2023-03-03T15:39:35;16.80;67.10
41953;DHT22;63613;28.200;112.870;2023-03-03T15:45:16;16.80;67.20
41953;DHT22;63613;28.200;112.870;2023-03-03T15:58:18;16.70;67.40
41953;DHT22;63613;28.200;112.870;2023-03-03T16:01:06;16.70;67.40
41953;DHT22;63613;28.200;112.870;2023-03-03T16:04:03;16.80;67.40
41953;DHT22;63613;28.200;112.870;2023-03-03T16:07:09;16.80;67.40
41953;DHT22;63613;28.200;112.870;2023-03-03T16:15:41;16.70;67.60
41953;DHT22;63613;28.200;112.870;2023-03-03T16:18:22;16.80;67.50
41953;DHT22;63613;28.200;112.870;2023-03-03T16:21:17;16.70;67.40
41953;DHT22;63613;28.200;112.870;2023-03-03T16:24:00;16.70;67.40
41953;DHT22;63613;28.200;112.870;2023-03-03T16:29:29;16.70;67.50
41953;DHT22;63613;28.200;112.870;2023-03-03T16:40:22;16.60;67.50
41953;DHT22;63613;28.200;112.870;2023-03-03T16:42:56;16.70;67.60
41953;DHT22;63613;28.200;112.870;2023-03-03T16:45:33;16.60;67.60
41953;DHT22;63613;28.200;112.870;2023-03-03T16:48:25;16.60;67.60
41953;DHT22;63613;28.200;112.870;2023-03-03T16:53:51;16.60;67.80
41953;DHT22;63613;28.200;112.870;2023-03-03T17:02:22;16.60;67.90
41953;DHT22;63613;28.200;112.870;2023-03-03T17:04:57;16.60;67.90
41953;DHT22;63613;28.200;112.870;2023-03-03T17:18:32;16.60;67.90
41953;DHT22;63613;28.200;112.870;2023-03-03T17:21:01;16.60;67.80
41953;DHT22;63613;28.200;112.870;2023-03-03T17:37:28;16.60;68.00
41953;DHT22;63613;28.200;112.870;2023-03-03T17:45:13;16.60;67.90
41953;DHT22;63613;28.200;112.870;2023-03-03T17:55:55;16.50;67.90
41953;DHT22;63613;28.200;112.870;2023-03-03T18:06:29;16.60;67.90
41953;DHT22;63613;28.200;112.870;2023-03-03T18:23:34;16.60;68.00
41953;DHT22;63613;28.200;112.870;2023-03-03T18:25:53;16.60;68.00
41953;DHT22;63613;28.200;112.870;2023-03-03T18:28:34;16.50;68.00
41953;DHT22;63613;28.200;112.870;2023-03-03T18:31:02;16.50;68.10
41953;DHT22;63613;28.200;112.870;2023-03-03T18:39:00;16.50;68.10
41953;DHT22;63613;28.200;112.870;2023-03-03T18:41:34;16.50;68.00
41953;DHT22;63613;28.200;112.870;2023-03-03T18:44:29;16.60;68.00
41953;DHT22;63613;28.200;112.870;2023-03-03T18:46:56;16.50;68.00
41953;DHT22;63613;28.200;112.870;2023-03-03T18:49:55;16.50;68.10
41953;DHT22;63613;28.200;112.870;2023-03-03T18:52:26;16.50;68.00
41953;DHT22;63613;28.200;112.870;2023-03-03T18:57:38;16.50;68.10
41953;DHT22;63613;28.200;112.870;2023-03-03T19:00:26;16.50;68.00
41953;DHT22;63613;28.200;112.870;2023-03-03T19:02:55;16.50;68.10
41953;DHT22;63613;28.200;112.870;2023-03-03T19:05:33;16.50;68.00
41953;DHT22;63613;28.200;112.870;2023-03-03T19:08:21;16.50;68.10
41953;DHT22;63613;28.200;112.870;2023-03-03T19:10:51;16.50;68.00
41953;DHT22;63613;28.200;112.870;2023-03-03T19:16:25;16.50;68.10
41953;DHT22;63613;28.200;112.870;2023-03-03T19:18:59;16.50;68.00
41953;DHT22;63613;28.200;112.870;2023-03-03T19:21:35;16.50;68.00
41953;DHT22;63613;28.200;112.870;2023-03-03T19:24:03;16.50;67.90
41953;DHT22;63613;28.200;112.870;2023-03-03T19:32:31;16.50;67.80
41953;DHT22;63613;28.200;112.870;2023-03-03T19:35:27;16.50;67.80
41953;DHT22;63613;28.200;112.870;2023-03-03T19:38:27;16.50;67.70
41953;DHT22;63613;28.200;112.870;2023-03-03T19:41:19;16.50;67.70
41953;DHT22;63613;28.200;112.870;2023-03-03T19:43:55;16.50;67.70
41953;DHT22;63613;28.200;112.870;2023-03-03T19:57:48;16.40;67.50
41953;DHT22;63613;28.200;112.870;2023-03-03T20:00:27;16.40;67.50
41953;DHT22;63613;28.200;112.870;2023-03-03T20:08:57;16.40;67.40
41953;DHT22;63613;28.200;112.870;2023-03-03T20:12:36;16.40;67.40
41953;DHT22;63613;28.200;112.870;2023-03-03T20:26:16;16.30;67.30
41953;DHT22;63613;28.200;112.870;2023-03-03T20:29:01;16.40;67.30
41953;DHT22;63613;28.200;112.870;2023-03-03T20:32:09;16.30;67.40
41953;DHT22;63613;28.200;112.870;2023-03-03T20:35:20;16.30;67.30
41953;DHT22;63613;28.200;112.870;2023-03-03T20:43:47;16.30;67.30
41953;DHT22;63613;28.200;112.870;2023-03-03T20:49:47;16.30;67.30
41953;DHT22;63613;28.200;112.870;2023-03-03T20:57:52;16.30;67.30
41953;DHT22;63613;28.200;112.870;2023-03-03T21:00:40;16.30;67.30
41953;DHT22;63613;28.200;112.870;2023-03-03T21:03:30;16.30;67.30
41953;DHT22;63613;28.200;112.870;2023-03-03T21:06:04;16.30;67.30
41953;DHT22;63613;28.200;112.870;2023-03-03T21:08:47;16.30;67.40
41953;DHT22;63613;28.200;112.870;2023-03-03T21:11:17;16.30;67.30
41953;DHT22;63613;28.200;112.870;2023-03-03T21:13:49;16.30;67.40
41953;DHT22;63613;28.200;112.870;2023-03-03T21:21:26;16.30;67.40
41953;DHT22;63613;28.200;112.870;2023-03-03T21:23:54;16.30;67.40
41953;DHT22;63613;28.200;112.870;2023-03-03T21:26:49;16.30;67.50
41953;DHT22;63613;28.200;112.870;2023-03-03T21:29:19;16.30;67.50
41953;DHT22;63613;28.200;112.870;2023-03-03T21:31:54;16.30;67.50
41953;DHT22;63613;28.200;112.870;2023-03-03T21:34:33;16.30;67.50
41953;DHT22;63613;28.200;112.870;2023-03-03T21:37:02;16.20;67.50
41953;DHT22;63613;28.200;112.870;2023-03-03T21:39:36;16.30;67.50
41953;DHT22;63613;28.200;112.870;2023-03-03T21:42:09;16.20;67.50
41953;DHT22;63613;28.200;112.870;2023-03-03T21:44:49;16.30;67.60
41953;DHT22;63613;28.200;112.870;2023-03-03T21:47:18;16.20;67.60
41953;DHT22;63613;28.200;112.870;2023-03-03T21:49:48;16.20;67.60
41953;DHT22;63613;28.200;112.870;2023-03-03T21:52:16;16.20;67.50
41953;DHT22;63613;28.200;112.870;2023-03-03T21:54:45;16.30;67.60
41953;DHT22;63613;28.200;112.870;2023-03-03T21:57:13;16.20;67.60
41953;DHT22;63613;28.200;112.870;2023-03-03T21:59:40;16.20;67.60
41953;DHT22;63613;28.200;112.870;2023-03-03T22:02:07;16.30;67.60
41953;DHT22;63613;28.200;112.870;2023-03-03T22:04:34;16.20;67.60
41953;DHT22;63613;28.200;112.870;2023-03-03T22:07:04;16.20;67.60
41953;DHT22;63613;28.200;112.870;2023-03-03T22:09:30;16.20;67.60
41953;DHT22;63613;28.200;112.870;2023-03-03T22:11:57;16.20;67.70
41953;DHT22;63613;28.200;112.870;2023-03-03T22:14:24;16.20;67.70
41953;DHT22;63613;28.200;112.870;2023-03-03T22:16:51;16.20;67.70
41953;DHT22;63613;28.200;112.870;2023-03-03T22:19:18;16.20;67.80
41953;DHT22;63613;28.200;112.870;2023-03-03T22:21:44;16.20;67.80
41953;DHT22;63613;28.200;112.870;2023-03-03T22:24:12;16.20;67.80